createdAt,value
2018-01-04T00:00:50.811Z,97692.59
2018-01-04T00:03:25.282Z,97672.37
2018-01-04T00:05:59.745Z,97659.75
2018-01-04T00:08:34.342Z,97663.73
2018-01-04T00:11:08.820Z,97668.30
2018-01-04T00:13:43.361Z,97618.45
2018-01-04T00:16:17.703Z,97683.13
2018-01-04T00:18:52.094Z,97668.48
2018-01-04T00:21:26.546Z,97659.59
2018-01-04T00:24:00.890Z,97663.11
2018-01-04T00:26:35.589Z,97663.92
2018-01-04T00:29:10.376Z,97666.73
2018-01-04T00:31:44.881Z,97662.17
2018-01-04T00:34:19.489Z,97659.38
2018-01-04T00:36:53.886Z,97661.45
2018-01-04T00:39:28.470Z,97680.73
2018-01-04T00:42:02.885Z,97669.36
2018-01-04T00:44:37.337Z,97671.56
2018-01-04T00:47:11.729Z,97680.64
2018-01-04T00:49:46.274Z,97677.81
2018-01-04T00:52:20.673Z,97641.61
2018-01-04T00:54:55.173Z,97635.34
2018-01-04T00:57:29.680Z,97722.92
2018-01-04T01:00:10.458Z,97658.72
2018-01-04T01:02:44.854Z,97679.78
2018-01-04T01:05:19.267Z,97725.52
2018-01-04T01:07:53.764Z,97733.09
2018-01-04T01:10:28.114Z,97755.12
2018-01-04T01:13:02.680Z,97738.23
2018-01-04T01:15:37.049Z,97774.98
2018-01-04T01:18:11.601Z,97800.77
2018-01-04T01:20:46.033Z,97777.98
2018-01-04T01:23:20.450Z,97799.15
2018-01-04T01:25:54.818Z,97807.04
2018-01-04T01:28:29.377Z,97830.63
2018-01-04T01:31:03.859Z,97827.18
2018-01-04T01:33:38.462Z,97834.67
2018-01-04T01:36:12.866Z,97841.39
2018-01-04T01:38:47.406Z,97829.31
2018-01-04T01:41:21.766Z,97859.31
2018-01-04T01:43:56.253Z,97862.27
2018-01-04T01:46:30.708Z,97855.08
2018-01-04T01:49:15.784Z,97847.99
2018-01-04T01:51:50.261Z,97877.23
2018-01-04T01:54:24.796Z,97851.27
2018-01-04T01:56:59.232Z,97857.36
2018-01-04T01:59:33.782Z,97870.59
2018-01-04T02:02:08.165Z,97882.03
2018-01-04T02:04:42.647Z,97876.13
2018-01-04T02:07:17.022Z,97813.33
2018-01-04T02:09:51.555Z,97884.66
2018-01-04T02:12:25.976Z,97859.71
2018-01-04T02:15:00.549Z,97862.85
2018-01-04T02:17:34.606Z,97865.18
2018-01-04T02:20:20.313Z,97871.02
2018-01-04T02:23:06.097Z,97870.27
2018-01-04T02:25:53.765Z,97869.13
2018-01-04T02:28:39.399Z,97862.30
2018-01-04T02:31:24.913Z,97871.47
2018-01-04T02:34:10.470Z,97883.56
2018-01-04T02:36:56.102Z,97843.27
2018-01-04T02:39:41.792Z,97863.48
2018-01-04T02:42:22.256Z,97851.09
2018-01-04T02:47:59.184Z,97861.88
2018-01-04T02:50:33.610Z,97848.53
2018-01-04T02:53:08.336Z,97846.00
2018-01-04T02:55:43.051Z,97846.73
2018-01-04T02:58:17.583Z,97857.09
2018-01-04T03:00:52.182Z,97851.55
2018-01-04T03:03:26.670Z,97861.79
2018-01-04T03:06:01.141Z,97850.22
2018-01-04T03:08:35.661Z,97831.52
2018-01-04T03:11:10.037Z,97857.52
2018-01-04T03:13:44.594Z,97854.06
2018-01-04T03:16:19.078Z,97860.89
2018-01-04T03:18:53.561Z,97861.95
2018-01-04T03:21:27.802Z,97861.94
2018-01-04T03:24:02.000Z,97859.37
2018-01-04T03:26:41.725Z,97874.84
2018-01-04T03:29:21.620Z,97867.87
2018-01-04T03:32:01.662Z,97871.53
2018-01-04T03:34:41.633Z,97875.64
2018-01-04T03:37:21.521Z,97873.55
2018-01-04T03:40:01.565Z,97884.52
2018-01-04T03:42:41.504Z,97861.94
2018-01-04T03:45:21.359Z,97888.22
2018-01-04T03:48:01.393Z,97883.50
2018-01-04T03:50:41.238Z,97886.98
2018-01-04T03:53:21.234Z,97878.42
2018-01-04T03:56:01.046Z,97883.23
2018-01-04T03:58:41.174Z,97891.13
2018-01-04T04:01:21.111Z,97898.16
2018-01-04T04:03:55.632Z,97885.03
2018-01-04T04:06:33.014Z,97892.83
2018-01-04T04:09:07.538Z,97893.05
2018-01-04T04:11:41.946Z,97896.25
2018-01-04T04:14:16.517Z,97901.48
2018-01-04T04:16:50.893Z,97914.53
2018-01-04T04:19:25.441Z,97910.84
2018-01-04T04:21:59.870Z,97916.94
2018-01-04T04:24:34.461Z,97915.81
2018-01-04T04:27:08.904Z,97927.76
2018-01-04T04:29:43.406Z,97922.58
2018-01-04T04:32:17.826Z,97928.73
2018-01-04T04:34:52.417Z,97931.41
2018-01-04T04:37:26.870Z,97936.31
2018-01-04T04:40:01.415Z,97938.05
2018-01-04T04:42:35.773Z,97932.52
2018-01-04T04:45:12.131Z,97933.73
2018-01-04T04:47:46.521Z,97939.02
2018-01-04T04:50:20.917Z,97926.72
2018-01-04T04:52:55.489Z,97937.14
2018-01-04T04:55:29.926Z,97944.99
2018-01-04T04:58:04.517Z,97936.08
2018-01-04T05:00:39.011Z,97932.02
2018-01-04T05:03:13.532Z,97935.05
2018-01-04T05:05:47.955Z,97936.39
2018-01-04T05:08:22.447Z,97947.58
2018-01-04T05:10:56.818Z,97931.79
2018-01-04T05:13:31.398Z,97934.46
2018-01-04T05:16:05.756Z,97950.77
2018-01-04T05:18:40.130Z,97963.88
2018-01-04T05:21:14.626Z,97948.59
2018-01-04T05:23:49.173Z,97963.27
2018-01-04T05:26:23.618Z,97953.63
2018-01-04T05:28:58.036Z,97958.41
2018-01-04T05:31:32.455Z,97952.27
2018-01-04T05:34:06.816Z,97955.73
2018-01-04T05:36:41.261Z,97947.78
2018-01-04T05:39:15.738Z,97951.94
2018-01-04T05:41:50.106Z,97947.15
2018-01-04T05:44:24.618Z,97953.30
2018-01-04T05:46:58.994Z,97948.04
2018-01-04T05:49:33.566Z,97959.45
2018-01-04T05:52:07.946Z,97957.13
2018-01-04T05:54:42.326Z,97912.29
2018-01-04T05:57:16.834Z,97947.05
2018-01-04T05:59:51.405Z,97946.42
2018-01-04T06:02:25.865Z,97924.92
2018-01-04T06:05:00.294Z,97952.05
2018-01-04T06:07:34.670Z,97948.04
2018-01-04T06:10:13.569Z,97943.84
2018-01-04T06:12:47.965Z,97943.84
2018-01-04T06:15:22.345Z,97947.31
2018-01-04T06:17:56.988Z,97943.65
2018-01-04T06:20:31.486Z,97954.30
2018-01-04T06:23:05.992Z,97939.93
2018-01-04T06:25:40.611Z,97942.66
2018-01-04T06:28:15.185Z,97942.06
2018-01-04T06:30:49.550Z,97951.30
2018-01-04T06:33:24.141Z,97940.33
2018-01-04T06:35:58.549Z,97936.86
2018-01-04T06:38:33.177Z,97955.85
2018-01-04T06:41:07.624Z,97959.47
2018-01-04T06:43:42.090Z,97951.19
2018-01-04T06:46:16.501Z,97961.91
2018-01-04T06:48:51.136Z,97947.78
2018-01-04T06:51:25.470Z,97960.05
2018-01-04T06:53:59.978Z,97966.87
2018-01-04T06:56:34.400Z,97952.23
2018-01-04T06:59:08.954Z,97941.39
2018-01-04T07:01:43.402Z,97945.95
2018-01-04T07:04:17.822Z,97951.20
2018-01-04T07:06:52.326Z,97957.59
2018-01-04T07:09:26.837Z,97956.79
2018-01-04T07:12:01.214Z,97956.30
2018-01-04T07:14:35.610Z,97960.03
2018-01-04T07:17:09.997Z,97904.01
2018-01-04T07:19:44.695Z,97962.25
2018-01-04T07:22:19.137Z,97957.78
2018-01-04T07:24:53.730Z,97958.62
2018-01-04T07:27:28.104Z,97981.80
2018-01-04T07:30:02.763Z,97978.11
2018-01-04T07:32:41.838Z,97975.67
2018-01-04T07:35:16.709Z,97962.43
2018-01-04T07:37:52.037Z,97949.30
2018-01-04T07:40:26.392Z,97971.61
2018-01-04T07:43:01.167Z,97970.73
2018-01-04T07:45:35.721Z,97978.77
2018-01-04T07:48:10.205Z,97949.84
2018-01-04T07:50:44.610Z,97976.18
2018-01-04T07:53:18.988Z,97976.49
2018-01-04T07:55:53.399Z,97978.22
2018-01-04T07:58:27.961Z,97987.44
2018-01-04T08:01:02.310Z,98005.55
2018-01-04T08:03:36.798Z,97993.57
2018-01-04T08:06:11.274Z,97957.35
2018-01-04T08:08:50.474Z,97980.39
2018-01-04T08:11:24.934Z,97992.16
2018-01-04T08:13:59.351Z,97987.59
2018-01-04T08:16:33.422Z,97985.66
2018-01-04T08:19:07.873Z,97993.70
2018-01-04T08:21:42.277Z,98007.45
2018-01-04T08:24:16.791Z,98000.14
2018-01-04T08:26:51.267Z,97999.69
2018-01-04T08:29:25.765Z,98010.38
2018-01-04T08:32:00.238Z,98022.84
2018-01-04T08:34:34.642Z,98008.94
2018-01-04T08:37:09.709Z,98008.22
2018-01-04T08:39:44.101Z,98013.27
2018-01-04T08:42:18.460Z,98015.41
2018-01-04T08:44:53.037Z,97998.64
2018-01-04T08:47:27.473Z,98016.73
2018-01-04T08:50:02.204Z,98028.91
2018-01-04T08:52:38.777Z,98020.67
2018-01-04T08:55:13.191Z,98022.06
2018-01-04T08:57:47.859Z,98031.97
2018-01-04T09:00:22.541Z,98035.36
2018-01-04T09:02:57.038Z,98037.64
2018-01-04T09:05:31.529Z,97996.34
2018-01-04T09:08:06.105Z,98041.29
2018-01-04T09:10:40.562Z,98050.34
2018-01-04T09:13:15.097Z,98044.34
2018-01-04T09:15:49.574Z,98048.31
2018-01-04T09:18:24.158Z,98059.49
2018-01-04T09:20:58.581Z,98049.91
2018-01-04T09:23:33.121Z,98043.84
2018-01-04T09:26:07.573Z,98063.13
2018-01-04T09:28:41.937Z,98057.05
2018-01-04T09:31:16.336Z,98071.53
2018-01-04T09:33:50.694Z,98075.81
2018-01-04T09:36:25.118Z,98004.06
2018-01-04T09:38:59.489Z,98082.44
2018-01-04T09:41:49.358Z,98062.30
2018-01-04T09:44:23.872Z,98059.58
2018-01-04T09:46:58.329Z,98079.89
2018-01-04T09:49:39.222Z,98064.80
2018-01-04T09:52:13.602Z,98072.18
2018-01-04T09:54:48.117Z,98076.20
2018-01-04T09:57:22.568Z,98074.70
2018-01-04T09:59:57.033Z,98037.19
2018-01-04T10:02:31.476Z,98070.31
2018-01-04T10:05:12.186Z,98065.79
2018-01-04T10:07:46.677Z,98069.75
2018-01-04T10:10:21.497Z,98066.20
2018-01-04T10:12:56.079Z,98057.08
2018-01-04T10:15:30.455Z,98066.47
2018-01-04T10:18:04.885Z,98065.44
2018-01-04T10:20:39.374Z,98063.22
2018-01-04T10:23:13.898Z,98026.95
2018-01-04T10:25:48.285Z,98055.14
2018-01-04T10:28:22.659Z,98041.72
2018-01-04T10:30:57.029Z,98055.29
2018-01-04T10:33:31.550Z,98047.55
2018-01-04T10:36:05.870Z,98051.16
2018-01-04T10:38:40.242Z,98056.44
2018-01-04T10:41:14.614Z,98046.62
2018-01-04T10:43:49.145Z,98043.10
2018-01-04T10:46:23.610Z,98010.87
2018-01-04T10:48:57.726Z,98040.44
2018-01-04T10:51:32.246Z,98032.32
2018-01-04T10:54:06.786Z,98039.23
2018-01-04T10:56:41.414Z,98020.89
2018-01-04T10:59:15.808Z,98015.89
2018-01-04T11:01:50.217Z,98010.37
2018-01-04T11:04:24.787Z,98008.98
2018-01-04T11:06:59.181Z,98014.05
2018-01-04T11:09:33.718Z,98007.72
2018-01-04T11:12:08.208Z,97998.03
2018-01-04T11:14:42.782Z,98002.65
2018-01-04T11:17:17.165Z,98000.59
2018-01-04T11:19:53.269Z,98000.67
2018-01-04T11:22:28.002Z,98004.70
2018-01-04T11:25:02.434Z,97998.95
2018-01-04T11:27:36.780Z,97996.81
2018-01-04T11:30:15.217Z,97985.31
2018-01-04T11:32:49.626Z,97994.51
2018-01-04T11:35:24.114Z,97994.58
2018-01-04T11:37:58.717Z,97991.23
2018-01-04T11:40:33.113Z,97991.92
2018-01-04T11:43:07.817Z,97994.53
2018-01-04T11:45:42.334Z,97992.41
2018-01-04T11:48:16.918Z,97990.84
2018-01-04T11:50:51.305Z,98000.75
2018-01-04T11:53:26.090Z,97989.64
2018-01-04T11:56:00.601Z,97994.37
2018-01-04T11:58:35.098Z,97985.17
2018-01-04T12:01:09.601Z,97984.50
2018-01-04T12:03:44.310Z,97983.81
2018-01-04T12:06:18.689Z,97975.80
2018-01-04T12:08:53.742Z,97978.92
2018-01-04T12:11:32.123Z,97971.05
2018-01-04T12:14:06.630Z,97975.13
2018-01-04T12:16:41.175Z,97971.05
2018-01-04T12:19:15.565Z,97962.64
2018-01-04T12:21:50.028Z,97955.13
2018-01-04T12:24:24.494Z,97962.53
2018-01-04T12:26:59.157Z,97954.05
2018-01-04T12:29:33.686Z,97951.31
2018-01-04T12:32:17.151Z,97951.21
2018-01-04T12:34:52.345Z,97941.70
2018-01-04T12:37:26.740Z,97932.70
2018-01-04T12:40:01.170Z,97917.83
2018-01-04T12:42:35.618Z,97914.01
2018-01-04T12:45:15.323Z,97909.88
2018-01-04T12:47:50.110Z,97908.97
2018-01-04T12:50:24.522Z,97917.75
2018-01-04T12:52:59.096Z,97915.69
2018-01-04T12:55:33.682Z,97914.73
2018-01-04T12:58:08.605Z,97909.23
2018-01-04T13:00:43.253Z,97908.84
2018-01-04T13:03:17.693Z,97910.19
2018-01-04T13:05:52.039Z,97903.27
2018-01-04T13:08:26.634Z,97907.59
2018-01-04T13:11:01.021Z,97906.64
2018-01-04T13:13:35.390Z,97894.78
2018-01-04T13:16:09.768Z,97887.81
2018-01-04T13:18:44.178Z,97895.73
2018-01-04T13:21:18.522Z,97896.92
2018-01-04T13:23:52.973Z,97891.77
2018-01-04T13:26:27.371Z,97889.84
2018-01-04T13:29:01.964Z,97901.16
2018-01-04T13:31:36.732Z,97894.69
2018-01-04T13:34:11.221Z,97890.36
2018-01-04T13:36:45.671Z,97892.59
2018-01-04T13:39:20.592Z,97897.43
2018-01-04T13:41:55.121Z,97900.08
2018-01-04T13:44:29.846Z,97909.67
2018-01-04T13:47:04.400Z,97904.37
2018-01-04T13:49:39.178Z,97911.83
2018-01-04T13:52:13.790Z,97906.20
2018-01-04T13:54:48.890Z,97904.95
2018-01-04T13:57:23.522Z,97909.20
2018-01-04T13:59:58.098Z,97911.48
2018-01-04T14:02:32.589Z,97920.33
2018-01-04T14:05:07.170Z,97916.45
2018-01-04T14:07:41.607Z,97915.26
2018-01-04T14:10:16.047Z,97914.23
2018-01-04T14:12:50.698Z,97917.46
2018-01-04T14:15:25.169Z,97920.95
2018-01-04T14:17:59.614Z,97915.83
2018-01-04T14:20:33.984Z,97918.11
2018-01-04T14:23:08.501Z,97910.73
2018-01-04T14:25:42.973Z,97906.06
2018-01-04T14:28:17.982Z,97908.97
2018-01-04T14:30:52.446Z,97907.00
2018-01-04T14:33:26.855Z,97909.62
2018-01-04T14:36:01.244Z,97909.19
2018-01-04T14:38:35.823Z,97905.52
2018-01-04T14:41:10.381Z,97898.01
2018-01-04T14:43:44.866Z,97894.81
2018-01-04T14:46:19.250Z,97907.92
2018-01-04T14:48:53.622Z,97907.92
2018-01-04T14:51:28.003Z,97897.59
2018-01-04T14:54:02.536Z,97895.09
2018-01-04T14:56:36.981Z,97890.34
2018-01-04T14:59:11.556Z,97891.06
2018-01-04T15:01:46.046Z,97883.89
2018-01-04T15:04:20.683Z,97887.66
2018-01-04T15:06:55.243Z,97884.91
2018-01-04T15:09:29.734Z,97881.73
2018-01-04T15:12:04.083Z,97884.57
2018-01-04T15:14:38.653Z,97884.92
2018-01-04T15:17:13.081Z,97832.69
2018-01-04T15:19:47.566Z,97886.52
2018-01-04T15:22:21.964Z,97894.96
2018-01-04T15:24:56.499Z,97875.47
2018-01-04T15:27:31.238Z,97880.57
2018-01-04T15:30:09.954Z,97882.69
2018-01-04T15:32:44.343Z,97885.91
2018-01-04T15:35:19.193Z,97873.12
2018-01-04T15:37:53.665Z,97862.56
2018-01-04T15:40:28.141Z,97855.67
2018-01-04T15:43:03.458Z,97856.91
2018-01-04T15:45:37.897Z,97815.92
2018-01-04T15:48:12.931Z,97846.39
2018-01-04T15:50:47.638Z,97846.75
2018-01-04T15:53:25.358Z,97844.50
2018-01-04T15:55:59.903Z,97837.28
2018-01-04T15:58:34.467Z,97829.09
2018-01-04T16:01:09.049Z,97829.08
2018-01-04T16:03:43.584Z,97826.40
2018-01-04T16:06:18.407Z,97814.94
2018-01-04T16:08:52.814Z,97818.50
2018-01-04T16:11:28.137Z,97809.90
2018-01-04T16:14:02.727Z,97817.88
2018-01-04T16:16:37.334Z,97816.17
2018-01-04T16:19:11.726Z,97794.43
2018-01-04T16:21:46.089Z,97811.64
2018-01-04T16:24:20.617Z,97811.74
2018-01-04T16:26:54.981Z,97809.91
2018-01-04T16:29:30.562Z,97807.64
2018-01-04T16:32:04.987Z,97817.62
2018-01-04T16:34:39.449Z,97813.68
2018-01-04T16:37:14.780Z,97765.48
2018-01-04T16:39:49.265Z,97806.59
2018-01-04T16:42:23.746Z,97797.72
2018-01-04T16:44:58.283Z,97798.33
2018-01-04T16:47:33.150Z,97799.77
2018-01-04T16:50:08.825Z,97805.94
2018-01-04T16:52:43.416Z,97807.64
2018-01-04T16:55:17.918Z,97818.77
2018-01-04T16:57:52.432Z,97803.70
2018-01-04T17:00:26.988Z,97807.30
2018-01-04T17:03:02.774Z,97801.31
2018-01-04T17:05:37.162Z,97792.01
2018-01-04T17:08:11.753Z,97789.37
2018-01-04T17:10:46.313Z,97778.98
2018-01-04T17:13:25.698Z,97776.78
2018-01-04T17:16:00.135Z,97770.94
2018-01-04T17:18:34.781Z,97771.45
2018-01-04T17:21:09.121Z,97789.00
2018-01-04T17:23:43.646Z,97788.98
2018-01-04T17:26:18.042Z,97785.38
2018-01-04T17:28:52.630Z,97771.43
2018-01-04T17:31:27.232Z,97784.89
2018-01-04T17:34:01.557Z,97776.52
2018-01-04T17:36:35.974Z,97787.88
2018-01-04T17:39:10.600Z,97780.63
2018-01-04T17:41:45.146Z,97759.42
2018-01-04T17:44:19.734Z,97782.20
2018-01-04T17:46:55.085Z,97766.66
2018-01-04T17:49:29.403Z,97771.70
2018-01-04T17:52:03.922Z,97770.70
2018-01-04T17:54:38.563Z,97748.09
2018-01-04T17:57:13.292Z,97757.98
2018-01-04T17:59:47.868Z,97751.75
2018-01-04T18:02:22.280Z,97744.19
2018-01-04T18:04:57.120Z,97745.78
2018-01-04T18:07:31.490Z,97741.64
2018-01-04T18:10:08.994Z,97749.52
2018-01-04T18:12:43.819Z,97738.29
2018-01-04T18:15:18.303Z,97743.88
2018-01-04T18:17:52.802Z,97747.00
2018-01-04T18:20:27.250Z,97752.97
2018-01-04T18:23:01.509Z,97741.69
2018-01-04T18:25:36.030Z,97743.45
2018-01-04T18:28:10.524Z,97736.04
2018-01-04T18:30:44.953Z,97734.12
2018-01-04T18:33:19.508Z,97724.37
2018-01-04T18:35:53.973Z,97723.41
2018-01-04T18:38:29.153Z,97725.55
2018-01-04T18:41:03.732Z,97722.18
2018-01-04T18:43:38.456Z,97720.76
2018-01-04T18:46:13.005Z,97713.94
2018-01-04T18:48:47.398Z,97706.10
2018-01-04T18:51:21.777Z,97704.58
2018-01-04T18:53:56.146Z,97706.63
2018-01-04T18:56:30.570Z,97706.50
2018-01-04T18:59:05.034Z,97704.92
2018-01-04T19:01:39.542Z,97691.80
2018-01-04T19:04:13.962Z,97683.81
2018-01-04T19:06:48.338Z,97680.41
2018-01-04T19:09:22.787Z,97681.36
2018-01-04T19:11:57.284Z,97686.55
2018-01-04T19:14:31.666Z,97684.67
2018-01-04T19:17:06.041Z,97683.86
2018-01-04T19:19:40.536Z,97683.45
2018-01-04T19:22:15.022Z,97682.80
2018-01-04T19:24:49.403Z,97681.42
2018-01-04T19:27:23.846Z,97678.81
2018-01-04T19:29:58.353Z,97686.11
2018-01-04T19:32:33.061Z,97682.77
2018-01-04T19:35:13.977Z,97682.23
2018-01-04T19:37:48.335Z,97676.14
2018-01-04T19:40:22.990Z,97680.53
2018-01-04T19:42:57.383Z,97672.30
2018-01-04T19:45:32.633Z,97675.53
2018-01-04T19:48:07.159Z,97679.02
2018-01-04T19:50:41.601Z,97681.76
2018-01-04T19:53:16.149Z,97685.44
2018-01-04T19:55:51.875Z,97687.33
2018-01-04T19:58:26.467Z,97669.05
2018-01-04T20:01:00.884Z,97675.59
2018-01-04T20:03:35.456Z,97677.16
2018-01-04T20:06:09.981Z,97639.00
2018-01-04T20:08:44.545Z,97671.95
2018-01-04T20:11:19.029Z,97660.61
2018-01-04T20:13:53.589Z,97674.00
2018-01-04T20:16:27.953Z,97663.41
2018-01-04T20:19:02.517Z,97660.33
2018-01-04T20:21:36.875Z,97661.30
2018-01-04T20:24:11.673Z,97656.56
2018-01-04T20:26:45.696Z,97661.31
2018-01-04T20:29:20.313Z,97658.11
2018-01-04T20:31:55.056Z,97658.81
2018-01-04T20:34:29.450Z,97663.92
2018-01-04T20:37:03.814Z,97640.20
2018-01-04T20:39:38.322Z,97634.80
2018-01-04T20:42:12.687Z,97661.66
2018-01-04T20:44:47.210Z,97658.66
2018-01-04T20:47:21.661Z,97656.50
2018-01-04T20:49:56.135Z,97655.98
2018-01-04T20:52:30.581Z,97653.39
2018-01-04T20:55:11.377Z,97657.20
2018-01-04T20:57:45.850Z,97659.34
2018-01-04T21:00:20.218Z,97658.58
2018-01-04T21:02:54.849Z,97650.42
2018-01-04T21:05:30.170Z,97648.20
2018-01-04T21:08:05.376Z,97648.77
2018-01-04T21:10:39.978Z,97640.73
2018-01-04T21:13:14.500Z,97653.25
2018-01-04T21:15:48.883Z,97641.00
2018-01-04T21:18:24.410Z,97638.73
2018-01-04T21:21:05.112Z,97629.17
2018-01-04T21:23:43.845Z,97628.16
2018-01-04T21:26:18.346Z,97601.72
2018-01-04T21:28:59.064Z,97630.08
2018-01-04T21:31:33.535Z,97626.08
2018-01-04T21:34:07.973Z,97623.63
2018-01-04T21:36:42.586Z,97617.26
2018-01-04T21:39:16.957Z,97594.91
2018-01-04T21:41:51.298Z,97613.21
2018-01-04T21:44:25.914Z,97610.48
2018-01-04T21:47:00.365Z,97616.79
2018-01-04T21:49:34.853Z,97614.63
2018-01-04T21:52:09.399Z,97615.50
2018-01-04T21:54:43.862Z,97614.47
2018-01-04T21:57:18.351Z,97608.71
2018-01-04T21:59:52.769Z,97611.05
2018-01-04T22:02:27.310Z,97617.52
2018-01-04T22:05:01.635Z,97609.50
2018-01-04T22:07:36.241Z,97611.10
2018-01-04T22:10:13.844Z,97614.29
2018-01-04T22:12:48.338Z,97620.74
2018-01-04T22:15:22.934Z,97617.55
2018-01-04T22:17:57.405Z,97620.38
2018-01-04T22:20:31.595Z,97621.76
2018-01-04T22:23:06.166Z,97611.45
2018-01-04T22:25:40.671Z,97594.30
2018-01-04T22:28:15.218Z,97619.94
2018-01-04T22:30:49.600Z,97614.38
2018-01-04T22:33:24.131Z,97620.16
2018-01-04T22:35:58.654Z,97615.37
2018-01-04T22:38:33.042Z,97621.94
2018-01-04T22:41:07.493Z,97607.83
2018-01-04T22:43:41.950Z,97604.97
2018-01-04T22:46:16.563Z,97591.38
2018-01-04T22:48:51.101Z,97615.57
2018-01-04T22:51:24.982Z,97598.88
2018-01-04T22:53:59.430Z,97598.30
2018-01-04T22:56:33.895Z,97580.98
2018-01-04T22:59:08.435Z,97576.25
2018-01-04T23:01:42.801Z,97588.38
2018-01-04T23:04:17.193Z,97581.27
2018-01-04T23:06:51.670Z,97581.47
2018-01-04T23:09:26.337Z,97579.53
2018-01-04T23:12:00.945Z,97571.22
2018-01-04T23:14:35.386Z,97556.28
2018-01-04T23:17:09.770Z,97565.14
2018-01-04T23:19:44.266Z,97555.88
2018-01-04T23:22:18.633Z,97558.38
2018-01-04T23:24:52.506Z,97566.91
2018-01-04T23:27:26.874Z,97565.48
2018-01-04T23:30:01.400Z,97566.45
2018-01-04T23:32:35.766Z,97566.23
2018-01-04T23:35:14.097Z,97562.45
2018-01-04T23:37:48.479Z,97560.45
2018-01-04T23:40:22.835Z,97539.91
2018-01-04T23:42:57.258Z,97521.12
2018-01-04T23:45:31.712Z,97516.63
2018-01-04T23:48:06.106Z,97510.81
2018-01-04T23:50:40.590Z,97519.09
2018-01-04T23:53:15.074Z,97517.15
2018-01-04T23:55:49.536Z,97516.72
2018-01-04T23:58:23.893Z,97523.13
